sensor_id;sensor_type;location;lat;lon;timestamp;P1;durP1;ratioP1;P2;durP2;ratioP2
46042;SDS011;32533;-33.854;18.542;2022-08-24T00:00:17;4.70;;;1.02;;
46042;SDS011;32533;-33.854;18.542;2022-08-24T00:02:46;3.53;;;1.05;;
46042;SDS011;32533;-33.854;18.542;2022-08-24T00:05:13;2.63;;;0.90;;
46042;SDS011;32533;-33.854;18.542;2022-08-24T00:07:39;15.32;;;1.00;;
46042;SDS011;32533;-33.854;18.542;2022-08-24T00:10:07;2.00;;;0.52;;
46042;SDS011;32533;-33.854;18.542;2022-08-24T00:12:35;0.55;;;0.50;;
46042;SDS011;32533;-33.854;18.542;2022-08-24T00:15:02;4.00;;;0.90;;
46042;SDS011;32533;-33.854;18.542;2022-08-24T00:17:30;5.05;;;0.77;;
46042;SDS011;32533;-33.854;18.542;2022-08-24T00:19:57;2.00;;;0.60;;
46042;SDS011;32533;-33.854;18.542;2022-08-24T00:22:24;5.13;;;1.08;;
46042;SDS011;32533;-33.854;18.542;2022-08-24T00:24:52;5.05;;;0.75;;
46042;SDS011;32533;-33.854;18.542;2022-08-24T00:27:18;5.10;;;0.90;;
46042;SDS011;32533;-33.854;18.542;2022-08-24T00:29:45;2.15;;;0.68;;
46042;SDS011;32533;-33.854;18.542;2022-08-24T00:32:11;2.45;;;0.80;;
46042;SDS011;32533;-33.854;18.542;2022-08-24T00:34:38;4.57;;;1.17;;
46042;SDS011;32533;-33.854;18.542;2022-08-24T00:37:04;2.03;;;0.93;;
46042;SDS011;32533;-33.854;18.542;2022-08-24T00:39:31;1.05;;;0.45;;
46042;SDS011;32533;-33.854;18.542;2022-08-24T00:41:57;2.28;;;0.95;;
46042;SDS011;32533;-33.854;18.542;2022-08-24T00:44:24;19.25;;;2.65;;
46042;SDS011;32533;-33.854;18.542;2022-08-24T00:46:53;9.90;;;6.10;;
46042;SDS011;32533;-33.854;18.542;2022-08-24T00:52:09;3.83;;;2.65;;
46042;SDS011;32533;-33.854;18.542;2022-08-24T00:54:47;12.00;;;1.92;;
46042;SDS011;32533;-33.854;18.542;2022-08-24T00:57:31;13.30;;;1.63;;
46042;SDS011;32533;-33.854;18.542;2022-08-24T01:00:03;4.15;;;1.30;;
46042;SDS011;32533;-33.854;18.542;2022-08-24T01:02:41;5.97;;;1.40;;
46042;SDS011;32533;-33.854;18.542;2022-08-24T01:05:09;6.38;;;1.30;;
46042;SDS011;32533;-33.854;18.542;2022-08-24T01:07:37;9.23;;;2.28;;
46042;SDS011;32533;-33.854;18.542;2022-08-24T01:10:09;2.47;;;0.70;;
46042;SDS011;32533;-33.854;18.542;2022-08-24T01:12:40;10.20;;;1.55;;
46042;SDS011;32533;-33.854;18.542;2022-08-24T01:15:10;3.55;;;0.90;;
46042;SDS011;32533;-33.854;18.542;2022-08-24T01:17:37;6.22;;;1.15;;
46042;SDS011;32533;-33.854;18.542;2022-08-24T01:20:22;6.53;;;0.80;;
46042;SDS011;32533;-33.854;18.542;2022-08-24T01:25:54;6.55;;;1.30;;
46042;SDS011;32533;-33.854;18.542;2022-08-24T01:28:20;6.57;;;5.00;;
46042;SDS011;32533;-33.854;18.542;2022-08-24T01:30:47;12.38;;;5.38;;
46042;SDS011;32533;-33.854;18.542;2022-08-24T01:33:24;5.00;;;4.40;;
46042;SDS011;32533;-33.854;18.542;2022-08-24T01:35:56;5.18;;;2.67;;
46042;SDS011;32533;-33.854;18.542;2022-08-24T01:38:44;3.22;;;1.55;;
46042;SDS011;32533;-33.854;18.542;2022-08-24T01:41:11;6.07;;;1.40;;
46042;SDS011;32533;-33.854;18.542;2022-08-24T01:43:38;5.70;;;1.30;;
46042;SDS011;32533;-33.854;18.542;2022-08-24T01:46:05;6.15;;;2.10;;
46042;SDS011;32533;-33.854;18.542;2022-08-24T01:48:33;3.63;;;1.08;;
46042;SDS011;32533;-33.854;18.542;2022-08-24T01:50:59;4.88;;;1.85;;
46042;SDS011;32533;-33.854;18.542;2022-08-24T01:53:26;11.27;;;1.60;;
46042;SDS011;32533;-33.854;18.542;2022-08-24T01:55:52;3.88;;;1.10;;
46042;SDS011;32533;-33.854;18.542;2022-08-24T01:58:19;6.75;;;1.20;;
46042;SDS011;32533;-33.854;18.542;2022-08-24T02:00:46;9.27;;;1.65;;
46042;SDS011;32533;-33.854;18.542;2022-08-24T02:03:13;13.90;;;7.00;;
46042;SDS011;32533;-33.854;18.542;2022-08-24T02:05:39;26.33;;;21.25;;
46042;SDS011;32533;-33.854;18.542;2022-08-24T02:08:06;20.02;;;14.15;;
46042;SDS011;32533;-33.854;18.542;2022-08-24T02:10:33;16.08;;;7.88;;
46042;SDS011;32533;-33.854;18.542;2022-08-24T02:12:59;12.35;;;5.20;;
46042;SDS011;32533;-33.854;18.542;2022-08-24T02:15:28;5.70;;;3.75;;
46042;SDS011;32533;-33.854;18.542;2022-08-24T02:17:57;9.80;;;2.33;;
46042;SDS011;32533;-33.854;18.542;2022-08-24T02:20:27;12.70;;;2.50;;
46042;SDS011;32533;-33.854;18.542;2022-08-24T02:22:54;11.23;;;1.80;;
46042;SDS011;32533;-33.854;18.542;2022-08-24T02:25:21;5.78;;;1.70;;
46042;SDS011;32533;-33.854;18.542;2022-08-24T02:27:49;4.28;;;1.33;;
46042;SDS011;32533;-33.854;18.542;2022-08-24T02:30:16;1.75;;;1.08;;
46042;SDS011;32533;-33.854;18.542;2022-08-24T02:32:43;7.43;;;1.77;;
46042;SDS011;32533;-33.854;18.542;2022-08-24T02:35:10;2.35;;;1.17;;
46042;SDS011;32533;-33.854;18.542;2022-08-24T02:37:37;5.82;;;1.88;;
46042;SDS011;32533;-33.854;18.542;2022-08-24T02:40:05;5.07;;;1.92;;
46042;SDS011;32533;-33.854;18.542;2022-08-24T02:42:32;6.32;;;1.80;;
46042;SDS011;32533;-33.854;18.542;2022-08-24T02:44:59;8.75;;;1.70;;
46042;SDS011;32533;-33.854;18.542;2022-08-24T02:47:27;6.50;;;2.03;;
46042;SDS011;32533;-33.854;18.542;2022-08-24T02:49:53;7.30;;;1.98;;
46042;SDS011;32533;-33.854;18.542;2022-08-24T02:52:20;4.32;;;1.63;;
46042;SDS011;32533;-33.854;18.542;2022-08-24T02:54:46;7.22;;;1.92;;
46042;SDS011;32533;-33.854;18.542;2022-08-24T02:57:13;13.00;;;2.17;;
46042;SDS011;32533;-33.854;18.542;2022-08-24T02:59:39;10.68;;;1.92;;
46042;SDS011;32533;-33.854;18.542;2022-08-24T03:02:06;22.23;;;3.65;;
46042;SDS011;32533;-33.854;18.542;2022-08-24T03:04:32;8.38;;;1.92;;
46042;SDS011;32533;-33.854;18.542;2022-08-24T03:06:59;6.30;;;1.85;;
46042;SDS011;32533;-33.854;18.542;2022-08-24T03:09:25;7.45;;;2.00;;
46042;SDS011;32533;-33.854;18.542;2022-08-24T03:11:52;7.40;;;2.25;;
46042;SDS011;32533;-33.854;18.542;2022-08-24T03:14:18;5.07;;;1.55;;
46042;SDS011;32533;-33.854;18.542;2022-08-24T03:16:45;6.07;;;1.73;;
46042;SDS011;32533;-33.854;18.542;2022-08-24T03:19:11;11.45;;;1.85;;
46042;SDS011;32533;-33.854;18.542;2022-08-24T03:21:39;10.60;;;2.55;;
46042;SDS011;32533;-33.854;18.542;2022-08-24T03:24:06;13.13;;;2.95;;
46042;SDS011;32533;-33.854;18.542;2022-08-24T03:26:33;10.00;;;2.17;;
46042;SDS011;32533;-33.854;18.542;2022-08-24T03:28:59;11.38;;;2.00;;
46042;SDS011;32533;-33.854;18.542;2022-08-24T03:31:26;5.63;;;2.42;;
46042;SDS011;32533;-33.854;18.542;2022-08-24T03:33:52;4.90;;;1.90;;
46042;SDS011;32533;-33.854;18.542;2022-08-24T03:36:19;5.35;;;2.13;;
46042;SDS011;32533;-33.854;18.542;2022-08-24T03:38:45;6.10;;;2.05;;
46042;SDS011;32533;-33.854;18.542;2022-08-24T03:41:12;6.68;;;1.80;;
46042;SDS011;32533;-33.854;18.542;2022-08-24T03:43:39;9.18;;;1.98;;
46042;SDS011;32533;-33.854;18.542;2022-08-24T03:46:14;4.95;;;1.65;;
46042;SDS011;32533;-33.854;18.542;2022-08-24T03:48:46;5.63;;;1.52;;
46042;SDS011;32533;-33.854;18.542;2022-08-24T03:51:14;4.15;;;2.08;;
46042;SDS011;32533;-33.854;18.542;2022-08-24T03:54:02;10.32;;;2.05;;
46042;SDS011;32533;-33.854;18.542;2022-08-24T03:56:29;6.22;;;1.60;;
46042;SDS011;32533;-33.854;18.542;2022-08-24T03:58:56;5.30;;;1.50;;
46042;SDS011;32533;-33.854;18.542;2022-08-24T04:01:23;7.00;;;2.03;;
46042;SDS011;32533;-33.854;18.542;2022-08-24T04:03:50;29.83;;;2.88;;
46042;SDS011;32533;-33.854;18.542;2022-08-24T04:06:18;16.20;;;2.40;;
46042;SDS011;32533;-33.854;18.542;2022-08-24T04:08:46;25.15;;;5.25;;
46042;SDS011;32533;-33.854;18.542;2022-08-24T04:11:14;28.80;;;17.17;;
46042;SDS011;32533;-33.854;18.542;2022-08-24T04:13:43;27.92;;;14.95;;
46042;SDS011;32533;-33.854;18.542;2022-08-24T04:16:12;10.23;;;6.82;;
46042;SDS011;32533;-33.854;18.542;2022-08-24T04:18:40;14.77;;;4.85;;
46042;SDS011;32533;-33.854;18.542;2022-08-24T04:21:14;10.07;;;3.58;;
46042;SDS011;32533;-33.854;18.542;2022-08-24T04:23:42;7.60;;;3.28;;
46042;SDS011;32533;-33.854;18.542;2022-08-24T04:26:08;7.65;;;3.22;;
46042;SDS011;32533;-33.854;18.542;2022-08-24T04:28:35;6.63;;;2.40;;
46042;SDS011;32533;-33.854;18.542;2022-08-24T04:31:02;7.40;;;3.30;;
46042;SDS011;32533;-33.854;18.542;2022-08-24T04:33:30;44.67;;;32.10;;
46042;SDS011;32533;-33.854;18.542;2022-08-24T04:35:57;30.30;;;20.65;;
46042;SDS011;32533;-33.854;18.542;2022-08-24T04:38:24;26.38;;;17.17;;
46042;SDS011;32533;-33.854;18.542;2022-08-24T04:40:51;21.40;;;10.90;;
46042;SDS011;32533;-33.854;18.542;2022-08-24T04:43:17;15.05;;;6.85;;
46042;SDS011;32533;-33.854;18.542;2022-08-24T04:45:47;9.10;;;4.47;;
46042;SDS011;32533;-33.854;18.542;2022-08-24T04:48:14;9.88;;;3.60;;
46042;SDS011;32533;-33.854;18.542;2022-08-24T04:50:42;20.50;;;5.28;;
46042;SDS011;32533;-33.854;18.542;2022-08-24T04:53:09;12.98;;;3.42;;
46042;SDS011;32533;-33.854;18.542;2022-08-24T04:55:43;10.02;;;2.72;;
46042;SDS011;32533;-33.854;18.542;2022-08-24T04:58:12;11.23;;;3.15;;
46042;SDS011;32533;-33.854;18.542;2022-08-24T05:00:40;7.53;;;2.58;;
46042;SDS011;32533;-33.854;18.542;2022-08-24T05:03:07;12.20;;;3.95;;
46042;SDS011;32533;-33.854;18.542;2022-08-24T05:05:38;8.02;;;3.50;;
46042;SDS011;32533;-33.854;18.542;2022-08-24T05:08:13;18.52;;;4.15;;
46042;SDS011;32533;-33.854;18.542;2022-08-24T05:10:42;11.60;;;3.28;;
46042;SDS011;32533;-33.854;18.542;2022-08-24T05:13:11;11.60;;;3.42;;
46042;SDS011;32533;-33.854;18.542;2022-08-24T05:15:43;10.55;;;3.83;;
46042;SDS011;32533;-33.854;18.542;2022-08-24T05:18:11;11.88;;;5.18;;
46042;SDS011;32533;-33.854;18.542;2022-08-24T05:20:39;16.02;;;4.55;;
46042;SDS011;32533;-33.854;18.542;2022-08-24T05:23:07;12.68;;;4.60;;
46042;SDS011;32533;-33.854;18.542;2022-08-24T05:25:34;13.77;;;4.85;;
46042;SDS011;32533;-33.854;18.542;2022-08-24T05:28:01;18.83;;;4.82;;
46042;SDS011;32533;-33.854;18.542;2022-08-24T05:30:28;11.68;;;5.07;;
46042;SDS011;32533;-33.854;18.542;2022-08-24T05:32:54;11.18;;;4.47;;
46042;SDS011;32533;-33.854;18.542;2022-08-24T05:35:21;11.95;;;4.65;;
46042;SDS011;32533;-33.854;18.542;2022-08-24T05:37:47;12.90;;;4.18;;
46042;SDS011;32533;-33.854;18.542;2022-08-24T05:40:15;11.55;;;4.97;;
46042;SDS011;32533;-33.854;18.542;2022-08-24T05:42:43;10.43;;;4.40;;
46042;SDS011;32533;-33.854;18.542;2022-08-24T05:45:10;11.55;;;4.35;;
46042;SDS011;32533;-33.854;18.542;2022-08-24T05:47:37;12.38;;;4.43;;
46042;SDS011;32533;-33.854;18.542;2022-08-24T05:50:04;9.65;;;3.80;;
46042;SDS011;32533;-33.854;18.542;2022-08-24T05:52:32;16.75;;;4.13;;
46042;SDS011;32533;-33.854;18.542;2022-08-24T05:55:00;12.73;;;4.35;;
46042;SDS011;32533;-33.854;18.542;2022-08-24T05:57:30;18.60;;;6.35;;
46042;SDS011;32533;-33.854;18.542;2022-08-24T05:59:58;19.70;;;4.88;;
46042;SDS011;32533;-33.854;18.542;2022-08-24T06:02:26;13.60;;;4.78;;
46042;SDS011;32533;-33.854;18.542;2022-08-24T06:04:53;22.17;;;5.32;;
46042;SDS011;32533;-33.854;18.542;2022-08-24T06:07:20;15.85;;;4.55;;
46042;SDS011;32533;-33.854;18.542;2022-08-24T06:09:46;14.15;;;4.40;;
46042;SDS011;32533;-33.854;18.542;2022-08-24T06:12:13;13.88;;;4.15;;
46042;SDS011;32533;-33.854;18.542;2022-08-24T06:14:40;15.13;;;4.88;;
46042;SDS011;32533;-33.854;18.542;2022-08-24T06:17:12;17.60;;;5.30;;
46042;SDS011;32533;-33.854;18.542;2022-08-24T06:19:38;17.60;;;4.60;;
46042;SDS011;32533;-33.854;18.542;2022-08-24T06:22:05;20.38;;;4.57;;
46042;SDS011;32533;-33.854;18.542;2022-08-24T06:24:34;18.00;;;5.25;;
46042;SDS011;32533;-33.854;18.542;2022-08-24T06:27:20;16.02;;;4.85;;
46042;SDS011;32533;-33.854;18.542;2022-08-24T06:29:52;21.13;;;4.00;;
46042;SDS011;32533;-33.854;18.542;2022-08-24T06:32:23;18.70;;;4.25;;
46042;SDS011;32533;-33.854;18.542;2022-08-24T06:34:53;13.13;;;5.35;;
46042;SDS011;32533;-33.854;18.542;2022-08-24T06:37:21;13.32;;;3.42;;
46042;SDS011;32533;-33.854;18.542;2022-08-24T06:39:53;10.85;;;4.95;;
46042;SDS011;32533;-33.854;18.542;2022-08-24T06:42:21;13.05;;;3.50;;
46042;SDS011;32533;-33.854;18.542;2022-08-24T06:44:53;15.80;;;5.40;;
46042;SDS011;32533;-33.854;18.542;2022-08-24T06:47:20;13.35;;;5.82;;
46042;SDS011;32533;-33.854;18.542;2022-08-24T06:49:47;16.40;;;3.85;;
46042;SDS011;32533;-33.854;18.542;2022-08-24T06:52:13;14.70;;;5.45;;
46042;SDS011;32533;-33.854;18.542;2022-08-24T06:54:40;10.15;;;4.65;;
46042;SDS011;32533;-33.854;18.542;2022-08-24T06:57:07;16.52;;;4.75;;
46042;SDS011;32533;-33.854;18.542;2022-08-24T06:59:33;13.85;;;4.72;;
46042;SDS011;32533;-33.854;18.542;2022-08-24T07:02:00;26.33;;;5.40;;
46042;SDS011;32533;-33.854;18.542;2022-08-24T07:04:26;19.75;;;3.85;;
46042;SDS011;32533;-33.854;18.542;2022-08-24T07:06:54;39.83;;;13.30;;
46042;SDS011;32533;-33.854;18.542;2022-08-24T07:09:20;19.92;;;10.60;;
46042;SDS011;32533;-33.854;18.542;2022-08-24T07:11:50;16.55;;;8.95;;
46042;SDS011;32533;-33.854;18.542;2022-08-24T07:14:17;17.25;;;5.70;;
46042;SDS011;32533;-33.854;18.542;2022-08-24T07:16:50;15.82;;;4.93;;
46042;SDS011;32533;-33.854;18.542;2022-08-24T07:19:17;18.38;;;5.15;;
46042;SDS011;32533;-33.854;18.542;2022-08-24T07:21:43;14.40;;;3.63;;
46042;SDS011;32533;-33.854;18.542;2022-08-24T07:24:10;15.77;;;4.38;;
46042;SDS011;32533;-33.854;18.542;2022-08-24T07:26:37;19.50;;;4.65;;
46042;SDS011;32533;-33.854;18.542;2022-08-24T07:29:05;13.38;;;4.07;;
46042;SDS011;32533;-33.854;18.542;2022-08-24T07:32:10;18.33;;;4.07;;
46042;SDS011;32533;-33.854;18.542;2022-08-24T07:34:36;12.45;;;4.07;;
46042;SDS011;32533;-33.854;18.542;2022-08-24T07:37:03;13.50;;;4.57;;
46042;SDS011;32533;-33.854;18.542;2022-08-24T07:39:30;16.42;;;4.13;;
46042;SDS011;32533;-33.854;18.542;2022-08-24T07:41:56;16.30;;;4.20;;
46042;SDS011;32533;-33.854;18.542;2022-08-24T07:44:23;10.05;;;3.45;;
46042;SDS011;32533;-33.854;18.542;2022-08-24T07:46:50;16.58;;;4.93;;
46042;SDS011;32533;-33.854;18.542;2022-08-24T07:49:16;15.35;;;4.03;;
46042;SDS011;32533;-33.854;18.542;2022-08-24T07:51:43;20.23;;;4.78;;
46042;SDS011;32533;-33.854;18.542;2022-08-24T07:54:09;11.23;;;3.40;;
46042;SDS011;32533;-33.854;18.542;2022-08-24T07:56:37;18.73;;;4.70;;
46042;SDS011;32533;-33.854;18.542;2022-08-24T07:59:03;17.55;;;5.45;;
46042;SDS011;32533;-33.854;18.542;2022-08-24T08:01:30;14.82;;;3.58;;
46042;SDS011;32533;-33.854;18.542;2022-08-24T08:03:58;10.82;;;2.90;;
46042;SDS011;32533;-33.854;18.542;2022-08-24T08:06:24;9.90;;;3.30;;
46042;SDS011;32533;-33.854;18.542;2022-08-24T08:08:51;12.43;;;3.25;;
46042;SDS011;32533;-33.854;18.542;2022-08-24T08:11:17;14.68;;;3.80;;
46042;SDS011;32533;-33.854;18.542;2022-08-24T08:13:44;10.35;;;3.25;;
46042;SDS011;32533;-33.854;18.542;2022-08-24T08:16:11;13.60;;;3.00;;
46042;SDS011;32533;-33.854;18.542;2022-08-24T08:18:37;11.38;;;3.78;;
46042;SDS011;32533;-33.854;18.542;2022-08-24T08:21:05;21.80;;;10.43;;
46042;SDS011;32533;-33.854;18.542;2022-08-24T08:23:54;15.77;;;7.82;;
46042;SDS011;32533;-33.854;18.542;2022-08-24T08:26:39;10.68;;;4.90;;
46042;SDS011;32533;-33.854;18.542;2022-08-24T08:29:10;10.45;;;3.63;;
46042;SDS011;32533;-33.854;18.542;2022-08-24T08:31:38;13.20;;;4.95;;
46042;SDS011;32533;-33.854;18.542;2022-08-24T08:34:06;16.33;;;3.53;;
46042;SDS011;32533;-33.854;18.542;2022-08-24T08:36:34;16.48;;;4.55;;
46042;SDS011;32533;-33.854;18.542;2022-08-24T08:39:01;13.43;;;4.43;;
46042;SDS011;32533;-33.854;18.542;2022-08-24T08:49:50;10.88;;;3.28;;
46042;SDS011;32533;-33.854;18.542;2022-08-24T08:55:32;12.03;;;4.07;;
46042;SDS011;32533;-33.854;18.542;2022-08-24T08:58:11;9.40;;;3.17;;
46042;SDS011;32533;-33.854;18.542;2022-08-24T09:04:04;14.68;;;3.60;;
46042;SDS011;32533;-33.854;18.542;2022-08-24T09:22:43;15.10;;;2.92;;
46042;SDS011;32533;-33.854;18.542;2022-08-24T09:25:23;11.73;;;3.10;;
46042;SDS011;32533;-33.854;18.542;2022-08-24T09:51:08;15.57;;;4.10;;
46042;SDS011;32533;-33.854;18.542;2022-08-24T09:54:28;14.05;;;4.85;;
46042;SDS011;32533;-33.854;18.542;2022-08-24T10:00:05;15.80;;;3.55;;
46042;SDS011;32533;-33.854;18.542;2022-08-24T10:02:52;9.40;;;3.05;;
46042;SDS011;32533;-33.854;18.542;2022-08-24T10:17:06;17.02;;;3.75;;
46042;SDS011;32533;-33.854;18.542;2022-08-24T10:22:30;22.33;;;4.95;;
46042;SDS011;32533;-33.854;18.542;2022-08-24T10:33:59;11.52;;;3.40;;
46042;SDS011;32533;-33.854;18.542;2022-08-24T10:54:34;13.63;;;3.92;;
46042;SDS011;32533;-33.854;18.542;2022-08-24T10:57:37;11.43;;;3.58;;
46042;SDS011;32533;-33.854;18.542;2022-08-24T11:02:41;15.95;;;4.18;;
46042;SDS011;32533;-33.854;18.542;2022-08-24T11:05:14;16.30;;;7.25;;
46042;SDS011;32533;-33.854;18.542;2022-08-24T11:07:58;10.98;;;3.88;;
46042;SDS011;32533;-33.854;18.542;2022-08-24T11:10:30;16.73;;;3.97;;
46042;SDS011;32533;-33.854;18.542;2022-08-24T11:13:23;15.60;;;3.28;;
46042;SDS011;32533;-33.854;18.542;2022-08-24T11:15:54;9.13;;;3.15;;
46042;SDS011;32533;-33.854;18.542;2022-08-24T11:18:22;10.95;;;2.88;;
46042;SDS011;32533;-33.854;18.542;2022-08-24T11:20:51;14.13;;;4.18;;
46042;SDS011;32533;-33.854;18.542;2022-08-24T11:23:20;14.98;;;3.65;;
46042;SDS011;32533;-33.854;18.542;2022-08-24T11:26:01;15.30;;;3.95;;
46042;SDS011;32533;-33.854;18.542;2022-08-24T11:30:58;10.35;;;3.08;;
46042;SDS011;32533;-33.854;18.542;2022-08-24T11:33:30;15.43;;;4.72;;
46042;SDS011;32533;-33.854;18.542;2022-08-24T11:35:59;11.85;;;3.40;;
46042;SDS011;32533;-33.854;18.542;2022-08-24T11:38:30;16.48;;;3.45;;
46042;SDS011;32533;-33.854;18.542;2022-08-24T11:46:34;14.52;;;3.95;;
46042;SDS011;32533;-33.854;18.542;2022-08-24T11:54:44;12.45;;;3.28;;
46042;SDS011;32533;-33.854;18.542;2022-08-24T12:00:13;10.25;;;3.90;;
46042;SDS011;32533;-33.854;18.542;2022-08-24T12:08:57;10.40;;;3.20;;
46042;SDS011;32533;-33.854;18.542;2022-08-24T12:14:23;16.20;;;3.40;;
46042;SDS011;32533;-33.854;18.542;2022-08-24T12:17:12;10.68;;;3.80;;
46042;SDS011;32533;-33.854;18.542;2022-08-24T12:20:03;10.43;;;2.60;;
46042;SDS011;32533;-33.854;18.542;2022-08-24T12:22:58;13.68;;;3.58;;
46042;SDS011;32533;-33.854;18.542;2022-08-24T12:25:32;11.68;;;3.38;;
46042;SDS011;32533;-33.854;18.542;2022-08-24T12:28:25;13.27;;;3.80;;
46042;SDS011;32533;-33.854;18.542;2022-08-24T12:30:58;12.68;;;3.90;;
46042;SDS011;32533;-33.854;18.542;2022-08-24T12:33:53;11.80;;;4.07;;
46042;SDS011;32533;-33.854;18.542;2022-08-24T12:39:27;11.50;;;2.45;;
46042;SDS011;32533;-33.854;18.542;2022-08-24T12:44:54;22.20;;;4.18;;
46042;SDS011;32533;-33.854;18.542;2022-08-24T12:50:04;14.85;;;3.22;;
46042;SDS011;32533;-33.854;18.542;2022-08-24T13:01:18;12.25;;;3.30;;
46042;SDS011;32533;-33.854;18.542;2022-08-24T13:03:47;12.82;;;2.55;;
46042;SDS011;32533;-33.854;18.542;2022-08-24T13:06:36;10.75;;;2.40;;
46042;SDS011;32533;-33.854;18.542;2022-08-24T13:09:11;11.90;;;3.15;;
46042;SDS011;32533;-33.854;18.542;2022-08-24T13:12:49;6.88;;;3.08;;
46042;SDS011;32533;-33.854;18.542;2022-08-24T13:31:34;11.02;;;3.00;;
46042;SDS011;32533;-33.854;18.542;2022-08-24T13:44:34;12.33;;;2.93;;
46042;SDS011;32533;-33.854;18.542;2022-08-24T13:58:20;13.32;;;2.50;;
46042;SDS011;32533;-33.854;18.542;2022-08-24T14:06:59;11.35;;;3.03;;
46042;SDS011;32533;-33.854;18.542;2022-08-24T14:15:58;7.28;;;2.08;;
46042;SDS011;32533;-33.854;18.542;2022-08-24T14:19:03;10.30;;;2.60;;
46042;SDS011;32533;-33.854;18.542;2022-08-24T14:21:43;10.20;;;2.10;;
46042;SDS011;32533;-33.854;18.542;2022-08-24T14:24:30;4.93;;;2.10;;
46042;SDS011;32533;-33.854;18.542;2022-08-24T14:30:42;8.38;;;2.13;;
46042;SDS011;32533;-33.854;18.542;2022-08-24T14:32:45;5.38;;;3.03;;
46042;SDS011;32533;-33.854;18.542;2022-08-24T14:35:31;9.13;;;3.15;;
46042;SDS011;32533;-33.854;18.542;2022-08-24T14:38:05;6.00;;;1.90;;
46042;SDS011;32533;-33.854;18.542;2022-08-24T14:40:52;7.18;;;2.15;;
46042;SDS011;32533;-33.854;18.542;2022-08-24T14:45:55;8.98;;;2.33;;
46042;SDS011;32533;-33.854;18.542;2022-08-24T14:54:38;12.60;;;2.28;;
46042;SDS011;32533;-33.854;18.542;2022-08-24T15:00:46;15.45;;;2.22;;
46042;SDS011;32533;-33.854;18.542;2022-08-24T15:09:07;10.50;;;2.37;;
46042;SDS011;32533;-33.854;18.542;2022-08-24T15:11:53;13.25;;;3.20;;
46042;SDS011;32533;-33.854;18.542;2022-08-24T15:14:36;11.20;;;2.28;;
46042;SDS011;32533;-33.854;18.542;2022-08-24T15:17:07;9.45;;;2.30;;
46042;SDS011;32533;-33.854;18.542;2022-08-24T15:20:03;9.13;;;3.22;;
46042;SDS011;32533;-33.854;18.542;2022-08-24T15:22:44;8.10;;;1.85;;
46042;SDS011;32533;-33.854;18.542;2022-08-24T15:28:32;6.88;;;2.00;;
46042;SDS011;32533;-33.854;18.542;2022-08-24T15:31:05;26.38;;;14.43;;
46042;SDS011;32533;-33.854;18.542;2022-08-24T15:33:34;29.92;;;22.55;;
46042;SDS011;32533;-33.854;18.542;2022-08-24T15:36:26;23.40;;;14.93;;
46042;SDS011;32533;-33.854;18.542;2022-08-24T15:38:57;19.90;;;6.63;;
46042;SDS011;32533;-33.854;18.542;2022-08-24T15:46:26;12.50;;;3.60;;
46042;SDS011;32533;-33.854;18.542;2022-08-24T15:49:44;14.63;;;3.58;;
46042;SDS011;32533;-33.854;18.542;2022-08-24T15:51:49;23.23;;;16.13;;
46042;SDS011;32533;-33.854;18.542;2022-08-24T16:18:40;13.68;;;2.95;;
46042;SDS011;32533;-33.854;18.542;2022-08-24T16:21:30;9.13;;;2.63;;
46042;SDS011;32533;-33.854;18.542;2022-08-24T16:24:11;6.63;;;1.67;;
46042;SDS011;32533;-33.854;18.542;2022-08-24T16:34:46;9.23;;;2.80;;
46042;SDS011;32533;-33.854;18.542;2022-08-24T16:37:15;9.38;;;3.05;;
46042;SDS011;32533;-33.854;18.542;2022-08-24T16:39:44;9.20;;;2.95;;
46042;SDS011;32533;-33.854;18.542;2022-08-24T16:42:19;10.23;;;4.28;;
46042;SDS011;32533;-33.854;18.542;2022-08-24T16:44:51;9.60;;;2.92;;
46042;SDS011;32533;-33.854;18.542;2022-08-24T16:47:19;9.43;;;3.30;;
46042;SDS011;32533;-33.854;18.542;2022-08-24T16:49:46;7.55;;;2.45;;
46042;SDS011;32533;-33.854;18.542;2022-08-24T16:52:14;7.13;;;2.55;;
46042;SDS011;32533;-33.854;18.542;2022-08-24T16:54:41;9.38;;;2.13;;
46042;SDS011;32533;-33.854;18.542;2022-08-24T16:57:15;8.90;;;2.80;;
46042;SDS011;32533;-33.854;18.542;2022-08-24T16:59:45;20.52;;;12.13;;
46042;SDS011;32533;-33.854;18.542;2022-08-24T17:02:13;16.88;;;11.57;;
46042;SDS011;32533;-33.854;18.542;2022-08-24T17:04:40;11.77;;;5.78;;
46042;SDS011;32533;-33.854;18.542;2022-08-24T17:07:08;11.07;;;3.65;;
46042;SDS011;32533;-33.854;18.542;2022-08-24T17:09:38;7.85;;;3.13;;
46042;SDS011;32533;-33.854;18.542;2022-08-24T17:12:07;6.88;;;2.40;;
46042;SDS011;32533;-33.854;18.542;2022-08-24T17:14:35;7.18;;;2.50;;
46042;SDS011;32533;-33.854;18.542;2022-08-24T17:17:08;7.40;;;1.63;;
46042;SDS011;32533;-33.854;18.542;2022-08-24T17:19:37;5.55;;;2.05;;
46042;SDS011;32533;-33.854;18.542;2022-08-24T17:22:05;9.30;;;3.10;;
46042;SDS011;32533;-33.854;18.542;2022-08-24T17:24:32;10.25;;;2.47;;
46042;SDS011;32533;-33.854;18.542;2022-08-24T17:27:00;5.20;;;1.77;;
46042;SDS011;32533;-33.854;18.542;2022-08-24T17:29:27;3.92;;;1.67;;
46042;SDS011;32533;-33.854;18.542;2022-08-24T17:31:54;6.88;;;1.80;;
46042;SDS011;32533;-33.854;18.542;2022-08-24T17:34:21;8.10;;;2.50;;
46042;SDS011;32533;-33.854;18.542;2022-08-24T17:36:49;6.80;;;2.20;;
46042;SDS011;32533;-33.854;18.542;2022-08-24T17:39:18;6.28;;;1.75;;
46042;SDS011;32533;-33.854;18.542;2022-08-24T17:41:48;4.78;;;1.88;;
46042;SDS011;32533;-33.854;18.542;2022-08-24T17:44:20;10.65;;;3.45;;
46042;SDS011;32533;-33.854;18.542;2022-08-24T17:46:50;10.73;;;7.13;;
46042;SDS011;32533;-33.854;18.542;2022-08-24T17:49:20;10.48;;;5.78;;
46042;SDS011;32533;-33.854;18.542;2022-08-24T17:51:46;8.73;;;4.50;;
46042;SDS011;32533;-33.854;18.542;2022-08-24T17:54:14;5.20;;;2.95;;
46042;SDS011;32533;-33.854;18.542;2022-08-24T17:56:41;8.32;;;3.38;;
46042;SDS011;32533;-33.854;18.542;2022-08-24T17:59:11;10.23;;;3.10;;
46042;SDS011;32533;-33.854;18.542;2022-08-24T18:01:45;7.30;;;2.33;;
46042;SDS011;32533;-33.854;18.542;2022-08-24T18:04:14;7.28;;;2.38;;
46042;SDS011;32533;-33.854;18.542;2022-08-24T18:06:41;15.07;;;4.43;;
46042;SDS011;32533;-33.854;18.542;2022-08-24T18:09:10;10.35;;;3.28;;
46042;SDS011;32533;-33.854;18.542;2022-08-24T18:12:02;10.52;;;6.00;;
46042;SDS011;32533;-33.854;18.542;2022-08-24T18:14:30;17.45;;;5.53;;
46042;SDS011;32533;-33.854;18.542;2022-08-24T18:17:00;11.48;;;3.70;;
46042;SDS011;32533;-33.854;18.542;2022-08-24T18:19:32;8.18;;;5.38;;
46042;SDS011;32533;-33.854;18.542;2022-08-24T18:22:01;10.45;;;4.97;;
46042;SDS011;32533;-33.854;18.542;2022-08-24T18:24:29;9.35;;;3.30;;
46042;SDS011;32533;-33.854;18.542;2022-08-24T18:27:06;7.05;;;2.78;;
46042;SDS011;32533;-33.854;18.542;2022-08-24T18:29:43;5.75;;;2.22;;
46042;SDS011;32533;-33.854;18.542;2022-08-24T18:32:13;6.85;;;2.22;;
46042;SDS011;32533;-33.854;18.542;2022-08-24T18:34:40;11.43;;;3.15;;
46042;SDS011;32533;-33.854;18.542;2022-08-24T18:37:07;12.20;;;2.92;;
46042;SDS011;32533;-33.854;18.542;2022-08-24T18:39:33;5.50;;;1.85;;
46042;SDS011;32533;-33.854;18.542;2022-08-24T18:42:02;7.03;;;2.67;;
46042;SDS011;32533;-33.854;18.542;2022-08-24T18:44:31;4.15;;;1.80;;
46042;SDS011;32533;-33.854;18.542;2022-08-24T18:46:58;13.27;;;2.63;;
46042;SDS011;32533;-33.854;18.542;2022-08-24T18:49:24;7.03;;;2.40;;
46042;SDS011;32533;-33.854;18.542;2022-08-24T18:51:51;8.70;;;3.60;;
46042;SDS011;32533;-33.854;18.542;2022-08-24T18:54:21;4.40;;;2.20;;
46042;SDS011;32533;-33.854;18.542;2022-08-24T18:56:51;5.68;;;1.98;;